Terminal Aerodrome Forecast
Issued by NWS

Home | Current Version | Previous Version | Text Only | Print | Product List | Glossary Off
Versions: 1 2 3 4 5 6 7 8 9 10 11 12 13 14 15 16 17 18 19 20

000
FTUS43 KGRB 061723
TAFCWA
TAF
KCWA 061723Z 0618/0718 18008KT P6SM -SHRA SCT005 OVC080
      TEMPO 0618/0621 3SM SHRA BR BKN005
     FM062100 24009KT P6SM -SHRA SCT005 OVC015
      TEMPO 0621/0624 1SM +TSRA BR BKN005CB
     FM070000 34012KT 5SM SHRA BR BKN005 OVC040
     FM070300 34009KT 6SM -SHRA BR BKN012
     FM070600 33008KT P6SM SCT006 OVC012
     FM071400 35010KT P6SM SCT025=

USA.gov is the U.S. government's official web portal to all federal, state and local government web resources and services.